»·PEaware :: N851TB KSMX-KBFL

N851TB :: KSMX-KBFL

FLIGHT INFORMATION

Flight Status: Arrived
Operator: Privately registered:
United States
More flights under this callsign
Pilot: Jose Enrique G. (41620)
Aircraft: CESSNA 152 AEROBAT
(C152)
More flights by this aircraft type
Origin: KSMX Santa Maria Pub/Capt Hancock
United States
Destination: KBFL Meadows
United States
More flights between these airports :: More routes between these airports
Route:
File this flight plan on PilotEdge
Remarks:
Altitude:
(Current/Filed)
4,000ft
Speed:
(Current/Filed)
100kts
Departed: 24-Sep-22 08:59 AM
Arrived: 24-Sep-22 10:56 AM
Distance/Time
Traveled:
76nm/1:57
Distance/Time
To Go:
Arrived

Flight Plot

Page will automatically refresh every two minutes.


Map Options




Map Legend


Flown Route
Filed Route
Departure Airport
Arrival Airport
Navaid (VOR, NDB)
Fix

Horizontal Profiles

Position Reports

Time Latitude Longitude Heading Altitude Ground
Speed
24-Sep-22 08:52 34.899303 -120.448958 49 246ft 0kts
24-Sep-22 08:53 34.899303 -120.448958 49 246ft 0kts
24-Sep-22 08:54 34.899406 -120.451301 316 244ft 29kts
24-Sep-22 08:55 34.907215 -120.460651 315 225ft 37kts
24-Sep-22 08:56 34.908807 -120.463561 223 222ft 0kts
24-Sep-22 08:57 34.908805 -120.463563 222 222ft 1kts
24-Sep-22 08:58 34.906261 -120.461940 136 226ft 58kts
24-Sep-22 08:59 34.896565 -120.442511 66 913ft 69kts
24-Sep-22 09:00 34.906410 -120.423674 59 1765ft 57kts
24-Sep-22 09:01 34.917077 -120.405550 43 2476ft 65kts
24-Sep-22 09:02 34.927937 -120.386565 61 3193ft 68kts
24-Sep-22 09:03 34.935720 -120.365339 58 3894ft 69kts
24-Sep-22 09:04 34.946014 -120.338661 68 4094ft 106kts
24-Sep-22 09:05 34.956143 -120.305744 68 3982ft 104kts
24-Sep-22 09:06 34.967263 -120.274517 67 3961ft 101kts
24-Sep-22 09:07 34.968166 -120.271297 74 3976ft 100kts
24-Sep-22 09:10 34.899303 -120.448958 49 246ft 0kts
24-Sep-22 09:11 34.899303 -120.448958 49 246ft 0kts
24-Sep-22 09:12 34.894494 -120.445403 216 260ft 18kts
24-Sep-22 09:13 34.893741 -120.445704 182 262ft 11kts
24-Sep-22 09:14 34.905045 -120.449306 52 692ft 70kts
24-Sep-22 09:15 34.910825 -120.434947 57 1311ft 61kts
24-Sep-22 09:16 34.921424 -120.412003 70 2257ft 62kts
24-Sep-22 09:17 34.928856 -120.392811 57 2916ft 62kts
24-Sep-22 09:18 34.938147 -120.375104 58 3545ft 62kts
24-Sep-22 09:19 34.945046 -120.354702 77 3986ft 86kts
24-Sep-22 09:20 34.952107 -120.325316 67 4412ft 89kts
24-Sep-22 09:21 34.961959 -120.297010 62 4808ft 91kts
24-Sep-22 09:22 34.974601 -120.268608 60 5045ft 92kts
24-Sep-22 09:23 34.988290 -120.241615 62 5369ft 90kts
24-Sep-22 09:24 35.000688 -120.211679 66 5389ft 110kts
24-Sep-22 09:25 35.012853 -120.177520 65 5320ft 110kts
24-Sep-22 09:26 35.025048 -120.143259 67 5274ft 110kts
24-Sep-22 09:27 35.036203 -120.108546 69 5271ft 109kts
24-Sep-22 09:28 35.047103 -120.073649 73 5214ft 110kts
24-Sep-22 09:29 35.057341 -120.040710 67 5422ft 108kts
24-Sep-22 09:30 35.067950 -120.006825 67 5497ft 106kts
24-Sep-22 09:31 35.079663 -119.973664 66 5585ft 106kts
24-Sep-22 09:32 35.092962 -119.940874 61 5576ft 106kts
24-Sep-22 09:33 35.105964 -119.908243 66 5626ft 107kts
24-Sep-22 09:34 35.118736 -119.875333 65 5701ft 107kts
24-Sep-22 09:35 35.130106 -119.841582 65 5730ft 107kts
24-Sep-22 09:36 35.143062 -119.808975 60 5760ft 107kts
24-Sep-22 09:37 35.156863 -119.776645 64 5792ft 107kts
24-Sep-22 09:38 35.168916 -119.743351 69 5817ft 107kts
24-Sep-22 09:39 35.181261 -119.710245 66 5805ft 107kts
24-Sep-22 09:40 35.192267 -119.676314 71 5782ft 107kts
24-Sep-22 09:41 35.205999 -119.644566 54 5775ft 106kts
24-Sep-22 09:42 35.219647 -119.612356 64 5756ft 106kts
24-Sep-22 09:43 35.231464 -119.579130 66 5684ft 106kts
24-Sep-22 09:44 35.244580 -119.546583 66 5723ft 106kts
24-Sep-22 09:45 35.254873 -119.512782 66 5775ft 106kts
24-Sep-22 09:46 35.267580 -119.479981 62 5793ft 106kts
24-Sep-22 09:47 35.282186 -119.448512 59 5798ft 106kts
24-Sep-22 09:48 35.295272 -119.415926 67 5835ft 106kts
24-Sep-22 09:49 35.307801 -119.382565 65 5817ft 110kts
24-Sep-22 09:50 35.320080 -119.348682 69 5772ft 109kts
24-Sep-22 09:51 35.332627 -119.314836 71 5744ft 109kts
24-Sep-22 09:52 35.343079 -119.280111 71 5712ft 109kts
24-Sep-22 09:58 34.899303 -120.448958 49 246ft 0kts
24-Sep-22 09:59 34.899303 -120.448958 49 246ft 0kts
24-Sep-22 10:00 34.899303 -120.448958 49 246ft 0kts
24-Sep-22 10:02 34.899303 -120.448958 49 246ft 0kts
24-Sep-22 10:03 34.898894 -120.448666 164 248ft 20kts
24-Sep-22 10:04 34.893867 -120.445701 180 262ft 0kts
24-Sep-22 10:05 34.893228 -120.446581 308 263ft 0kts
24-Sep-22 10:06 34.902570 -120.454868 4 543ft 74kts
24-Sep-22 10:07 34.909643 -120.433149 79 1429ft 71kts
24-Sep-22 10:09 34.918401 -120.414677 65 2271ft 58kts
24-Sep-22 10:10 34.923026 -120.393356 66 2962ft 65kts
24-Sep-22 10:11 34.930916 -120.374125 65 3646ft 63kts
24-Sep-22 10:12 34.939054 -120.351572 66 4032ft 93kts
24-Sep-22 10:13 34.951119 -120.322309 63 4467ft 93kts
24-Sep-22 10:14 34.962518 -120.293097 59 4872ft 96kts
24-Sep-22 10:15 34.975423 -120.264204 61 5187ft 97kts
24-Sep-22 10:16 34.987280 -120.230843 72 5109ft 110kts
24-Sep-22 10:17 34.995025 -120.194963 81 5029ft 110kts
24-Sep-22 10:18 35.004965 -120.160450 65 4990ft 108kts
24-Sep-22 10:19 35.017373 -120.126772 68 4975ft 109kts
24-Sep-22 10:20 35.029881 -120.092927 65 4975ft 109kts
24-Sep-22 10:21 35.042406 -120.059021 62 4983ft 108kts
24-Sep-22 10:22 35.055746 -120.025931 57 4969ft 113kts
24-Sep-22 10:23 35.071636 -119.994544 58 5001ft 110kts
24-Sep-22 10:24 35.086120 -119.961522 64 4980ft 110kts
24-Sep-22 10:25 35.100210 -119.928747 58 4931ft 106kts
24-Sep-22 10:26 35.113767 -119.895226 64 4879ft 109kts
24-Sep-22 10:27 35.127184 -119.863416 60 5081ft 103kts
24-Sep-22 10:28 35.140153 -119.831922 66 5255ft 104kts
24-Sep-22 10:29 35.153616 -119.797686 68 4973ft 114kts
24-Sep-22 10:30 35.166284 -119.762446 68 4825ft 108kts
24-Sep-22 10:31 35.177084 -119.729923 68 5037ft 102kts
24-Sep-22 10:32 35.188429 -119.698060 61 5097ft 111kts
24-Sep-22 10:33 35.201809 -119.664040 66 4944ft 111kts
24-Sep-22 10:33 35.212280 -119.635733 63 4958ft 105kts
24-Sep-22 10:35 35.228508 -119.599060 60 4971ft 106kts
24-Sep-22 10:36 35.241951 -119.566828 67 4984ft 106kts
24-Sep-22 10:37 35.254106 -119.533959 59 5047ft 109kts
24-Sep-22 10:37 35.265902 -119.507491 60 5148ft 106kts
24-Sep-22 10:38 35.280937 -119.474788 64 4961ft 109kts
24-Sep-22 10:39 35.290685 -119.439133 83 4825ft 110kts
24-Sep-22 10:41 35.302756 -119.398807 71 4804ft 109kts
24-Sep-22 10:41 35.311806 -119.369628 70 4736ft 109kts
24-Sep-22 10:42 35.320006 -119.336631 62 5075ft 96kts
24-Sep-22 10:43 35.330927 -119.304650 69 5297ft 100kts
24-Sep-22 10:44 35.347743 -119.272946 57 4951ft 110kts
24-Sep-22 10:45 35.360584 -119.240458 67 4789ft 106kts
24-Sep-22 10:46 35.367976 -119.205597 81 4732ft 105kts
24-Sep-22 10:47 35.380252 -119.169749 65 3512ft 123kts
24-Sep-22 10:48 35.394795 -119.134625 66 2019ft 104kts
24-Sep-22 10:49 35.400567 -119.101502 99 1611ft 93kts
24-Sep-22 10:50 35.396048 -119.071379 87 1684ft 82kts
24-Sep-22 10:51 35.390585 -119.037640 107 1706ft 88kts
24-Sep-22 10:52 35.397547 -119.020792 346 1379ft 98kts
24-Sep-22 10:53 35.417438 -119.036436 313 904ft 78kts
24-Sep-22 10:54 35.432573 -119.054659 317 493ft 64kts
24-Sep-22 10:55 35.436372 -119.057608 85 492ft 0kts
24-Sep-22 10:56 35.436334 -119.057111 106 493ft 16kts
24-Sep-22 10:57 35.436469 -119.054765 38 494ft 0kts
24-Sep-22 10:58 35.436469 -119.054765 38 494ft 0kts

Navigation Log

Ident Type
Flight plan parsing failed, navigation log unavailable